Mountain Home, Arkansas
Current Conditions -  °F | °C
As of 5:53 PM on Monday 20 Oct 2014 (Local Time) from KBPK Reporting Station
Clear Clear  
Wind Chill: 68°   Ceiling: Unl
Heat Index: 68°   Visibility: 8mi
Dew Point: 58°   Wind: 0mph
Humidity: 70%   Direction: NA
Pressure: 30.01"   Gusts: NA
Location:  36.34°N, 92.38°W
Report Text: KBPK 202253Z AUTO 00000KT 8SM CLR 20/14 A3001 RMK AO2 SLP157 T02000144
Loading
Personal Weather Stations






























Interactive Weather Map New forecast layout! Learn more

10-Day Weather Forecast

Advertisements
Track Severe Weather on mobile